createdAt,value
2022-07-25T00:00:18.558Z,76
2022-07-25T00:05:59.626Z,90
2022-07-25T00:11:43.276Z,102
2022-07-25T00:17:23.425Z,88
2022-07-25T00:28:46.629Z,74
2022-07-25T00:34:26.737Z,74
2022-07-25T00:45:50.282Z,78
2022-07-25T00:51:30.650Z,78
2022-07-25T00:57:11.360Z,58
2022-07-25T01:02:53.170Z,80
2022-07-25T01:08:33.508Z,74
2022-07-25T01:14:13.800Z,74
2022-07-25T01:19:59.060Z,76
2022-07-25T01:25:39.241Z,88
2022-07-25T01:31:21.625Z,78
2022-07-25T01:37:02.313Z,88
2022-07-25T01:42:42.736Z,72
2022-07-25T01:48:28.713Z,98
2022-07-25T01:54:11.132Z,76
2022-07-25T01:59:51.379Z,80
2022-07-25T02:05:31.842Z,76
2022-07-25T02:11:12.201Z,74
2022-07-25T02:16:56.198Z,72
2022-07-25T02:39:37.779Z,72
2022-07-25T02:50:57.821Z,74
2022-07-25T02:56:38.171Z,66
2022-07-25T03:07:19.407Z,70
2022-07-25T03:12:59.669Z,66
2022-07-25T03:18:40.324Z,80
2022-07-25T03:24:20.933Z,80
2022-07-25T03:30:01.420Z,78
2022-07-25T03:35:42.085Z,88
2022-07-25T03:41:22.701Z,70
2022-07-25T03:47:03.317Z,58
2022-07-25T03:52:43.990Z,84
2022-07-25T03:58:24.359Z,80
2022-07-25T04:04:08.466Z,64
2022-07-25T04:09:48.865Z,70
2022-07-25T04:15:31.447Z,78
2022-07-25T04:26:52.249Z,72
2022-07-25T04:32:32.565Z,70
2022-07-25T04:38:12.980Z,66
2022-07-25T04:43:53.861Z,72
2022-07-25T04:49:34.328Z,76
2022-07-25T05:06:38.079Z,88
2022-07-25T05:12:18.531Z,88
2022-07-25T05:17:58.814Z,90
2022-07-25T05:23:39.305Z,82
2022-07-25T05:29:19.698Z,68
2022-07-25T05:35:00.333Z,90
2022-07-25T05:40:40.809Z,74
2022-07-25T05:46:21.399Z,94
2022-07-25T05:52:01.337Z,98
2022-07-25T05:57:41.613Z,88
2022-07-25T06:03:22.210Z,82
2022-07-25T06:09:17.768Z,80
2022-07-25T06:20:40.855Z,82
2022-07-25T06:26:21.044Z,90
2022-07-25T06:32:02.590Z,94
2022-07-25T06:49:04.423Z,100
2022-07-25T06:54:45.092Z,84
2022-07-25T07:00:28.902Z,98
2022-07-25T07:06:09.642Z,100
2022-07-25T07:11:49.768Z,90
2022-07-25T07:17:29.899Z,94
2022-07-25T07:23:10.475Z,94
2022-07-25T07:34:30.628Z,94
2022-07-25T07:40:18.691Z,98
2022-07-25T07:45:58.699Z,90
2022-07-25T07:51:38.858Z,104
2022-07-25T07:57:18.608Z,94
2022-07-25T08:02:59.554Z,90
2022-07-25T08:08:39.915Z,90
2022-07-25T08:14:20.072Z,98
2022-07-25T08:20:40.564Z,96
2022-07-25T08:32:02.718Z,8
2022-07-25T08:37:43.661Z,6
2022-07-25T08:43:23.830Z,26
2022-07-25T08:49:06.307Z,98
2022-07-25T08:54:55.787Z,22
2022-07-25T09:00:37.418Z,6
2022-07-25T09:06:17.329Z,72
2022-07-25T09:11:56.881Z,28
2022-07-25T09:17:40.829Z,90
2022-07-25T09:23:20.566Z,98
2022-07-25T09:29:00.359Z,106
2022-07-25T09:34:40.856Z,88
2022-07-25T09:40:21.163Z,84
2022-07-25T09:46:02.262Z,88
2022-07-25T09:51:45.200Z,92
2022-07-25T09:57:25.556Z,76
2022-07-25T10:03:07.447Z,60
2022-07-25T10:14:32.580Z,0
2022-07-25T10:20:18.265Z,0
2022-07-25T10:31:59.487Z,22
2022-07-25T10:37:49.826Z,0
2022-07-25T10:43:54.472Z,2
2022-07-25T10:50:56.712Z,4
2022-07-25T10:56:49.941Z,6
2022-07-25T11:02:36.289Z,4
2022-07-25T11:08:27.193Z,20
2022-07-25T11:14:31.431Z,22
2022-07-25T11:20:32.706Z,4
2022-07-25T11:26:23.829Z,24
2022-07-25T11:32:14.261Z,38
2022-07-25T11:37:58.041Z,2
2022-07-25T11:43:46.989Z,0
2022-07-25T12:27:46.125Z,2
2022-07-25T12:56:16.997Z,26
2022-07-25T13:02:02.201Z,4
2022-07-25T13:07:44.667Z,6
2022-07-25T13:14:00.141Z,10
2022-07-25T13:19:40.939Z,20
2022-07-25T13:25:24.032Z,6
2022-07-25T13:31:11.564Z,36
2022-07-25T13:36:57.926Z,0
2022-07-25T13:42:43.687Z,88
2022-07-25T13:48:36.364Z,22
2022-07-25T13:54:31.054Z,16
2022-07-25T14:00:21.291Z,16
2022-07-25T14:06:02.355Z,36
2022-07-25T14:17:59.289Z,20
2022-07-25T14:23:41.808Z,16
2022-07-25T14:29:30.409Z,20
2022-07-25T14:35:11.598Z,76
2022-07-25T14:46:32.850Z,74
2022-07-25T14:52:13.101Z,98
2022-07-25T14:57:56.781Z,4
2022-07-25T15:03:37.449Z,68
2022-07-25T15:09:19.365Z,8
2022-07-25T15:15:06.376Z,22
2022-07-25T15:26:27.187Z,40
2022-07-25T15:32:08.814Z,0
2022-07-25T15:37:49.094Z,98
2022-07-25T15:43:29.168Z,32
2022-07-25T16:00:33.515Z,72
2022-07-25T16:06:22.249Z,80
2022-07-25T16:12:03.851Z,76
2022-07-25T16:17:47.132Z,76
2022-07-25T16:23:27.103Z,100
2022-07-25T16:29:14.244Z,90
2022-07-25T16:34:55.342Z,88
2022-07-25T16:46:16.709Z,86
2022-07-25T16:52:14.365Z,124
2022-07-25T16:57:55.560Z,78
2022-07-25T17:03:35.743Z,54
2022-07-25T17:09:15.910Z,76
2022-07-25T17:25:41.655Z,88
2022-07-25T17:37:05.754Z,80
2022-07-25T17:59:52.998Z,82
2022-07-25T18:05:33.580Z,94
2022-07-25T18:11:13.858Z,94
2022-07-25T18:17:00.631Z,90
2022-07-25T18:22:41.497Z,84
2022-07-25T18:28:35.406Z,94
2022-07-25T18:34:26.345Z,70
2022-07-25T18:51:44.013Z,96
2022-07-25T19:03:04.414Z,94
2022-07-25T19:15:00.341Z,88
2022-07-25T19:26:40.467Z,74
2022-07-25T19:32:27.006Z,88
2022-07-25T19:38:07.357Z,80
2022-07-25T19:43:47.575Z,78
2022-07-25T19:49:44.471Z,88
2022-07-25T19:55:24.638Z,82
2022-07-25T20:01:05.474Z,74
2022-07-25T20:06:51.164Z,68
2022-07-25T20:12:31.625Z,90
2022-07-25T20:18:21.003Z,84
2022-07-25T20:24:01.237Z,94
2022-07-25T20:35:38.527Z,90
2022-07-25T20:46:37.891Z,88
2022-07-25T20:52:18.344Z,80
2022-07-25T20:58:02.003Z,80
2022-07-25T21:15:16.528Z,74
2022-07-25T21:21:00.329Z,88
2022-07-25T21:38:36.206Z,74
2022-07-25T21:44:32.778Z,80
2022-07-25T21:50:26.188Z,92
2022-07-25T21:56:15.526Z,72
2022-07-25T22:07:40.279Z,90
2022-07-25T22:19:01.622Z,84
2022-07-25T22:24:50.572Z,76
2022-07-25T22:30:30.804Z,90
2022-07-25T22:41:51.448Z,80
2022-07-25T22:47:31.772Z,80
2022-07-25T22:53:11.982Z,90
2022-07-25T22:58:52.178Z,84
2022-07-25T23:09:37.355Z,125
2022-07-25T23:15:17.388Z,82
2022-07-25T23:20:57.606Z,72
2022-07-25T23:32:18.783Z,72
2022-07-25T23:44:00.426Z,94
2022-07-25T23:49:40.680Z,66
2022-07-25T23:55:20.817Z,74
